Terminal Aerodrome Forecast
Issued by NWS Tulsa, OK

Home | Current Version | Previous Version | Text Only | Print | Product List | Glossary On
Versions: 1 2 3 4 5 6 7 8 9 10 11 12 13
332
FTUS44 KTSA 141140
TAFFSM
TAF
KFSM 141140Z 1412/1512 08012KT P6SM BKN025
     FM141600 06009KT 4SM -DZ BR BKN015
      TEMPO 1416/1420 VRB05KT 4SM BR BKN008
     FM150000 VRB03KT 4SM BR BKN012=

USA.gov is the U.S. government's official web portal to all federal, state and local government web resources and services.